Terminal Aerodrome Forecast
Issued by NWS

Home | Current Version | Previous Version | Text Only | Print | Product List | Glossary On
Versions: 1 2 3 4 5 6 7 8 9 10 11 12 13 14 15 16 17 18 19 20 21
000
FTUS42 KFFC 060911 AAB
TAFPDK
TAF AMD
KPDK 060911Z 0609/0706 07009KT 3SM -RA BR OVC005
     FM061400 12004KT 3SM -RA BKN007
     FM061700 25012KT P6SM BKN015
     FM062300 31010KT P6SM BKN025
     FM070200 31007KT P6SM BKN015=

USA.gov is the U.S. government's official web portal to all federal, state and local government web resources and services.